sensor_id;sensor_type;location;lat;lon;timestamp;P1;durP1;ratioP1;P2;durP2;ratioP2
70169;SDS011;57543;45.442;9.212;2024-02-15T00:00:53;33.58;;;19.20;;
70169;SDS011;57543;45.442;9.212;2024-02-15T00:03:56;36.20;;;19.63;;
70169;SDS011;57543;45.442;9.212;2024-02-15T00:07:03;33.75;;;19.33;;
70169;SDS011;57543;45.442;9.212;2024-02-15T00:10:08;32.50;;;19.20;;
70169;SDS011;57543;45.442;9.212;2024-02-15T00:13:12;34.28;;;19.45;;
70169;SDS011;57543;45.442;9.212;2024-02-15T00:16:17;33.67;;;19.17;;
70169;SDS011;57543;45.442;9.212;2024-02-15T00:19:20;33.00;;;19.30;;
70169;SDS011;57543;45.442;9.212;2024-02-15T00:22:31;33.75;;;20.02;;
70169;SDS011;57543;45.442;9.212;2024-02-15T00:25:39;33.45;;;19.15;;
70169;SDS011;57543;45.442;9.212;2024-02-15T00:28:47;35.30;;;19.98;;
70169;SDS011;57543;45.442;9.212;2024-02-15T00:31:51;31.20;;;18.35;;
70169;SDS011;57543;45.442;9.212;2024-02-15T00:34:54;36.77;;;20.00;;
70169;SDS011;57543;45.442;9.212;2024-02-15T00:38:00;34.47;;;19.45;;
70169;SDS011;57543;45.442;9.212;2024-02-15T00:41:04;32.40;;;18.38;;
70169;SDS011;57543;45.442;9.212;2024-02-15T00:44:09;32.38;;;18.92;;
70169;SDS011;57543;45.442;9.212;2024-02-15T00:47:15;32.33;;;19.25;;
70169;SDS011;57543;45.442;9.212;2024-02-15T00:50:21;32.53;;;18.33;;
70169;SDS011;57543;45.442;9.212;2024-02-15T00:53:25;33.40;;;18.70;;
70169;SDS011;57543;45.442;9.212;2024-02-15T00:56:29;34.83;;;20.20;;
70169;SDS011;57543;45.442;9.212;2024-02-15T00:59:36;36.08;;;19.98;;
70169;SDS011;57543;45.442;9.212;2024-02-15T01:02:41;35.72;;;20.45;;
70169;SDS011;57543;45.442;9.212;2024-02-15T01:05:45;35.83;;;20.83;;
70169;SDS011;57543;45.442;9.212;2024-02-15T01:08:49;35.60;;;19.98;;
70169;SDS011;57543;45.442;9.212;2024-02-15T01:11:55;38.97;;;21.88;;
70169;SDS011;57543;45.442;9.212;2024-02-15T01:14:59;39.65;;;21.13;;
70169;SDS011;57543;45.442;9.212;2024-02-15T01:18:05;39.95;;;22.02;;
70169;SDS011;57543;45.442;9.212;2024-02-15T01:21:11;41.37;;;23.23;;
70169;SDS011;57543;45.442;9.212;2024-02-15T01:24:15;38.10;;;21.48;;
70169;SDS011;57543;45.442;9.212;2024-02-15T01:27:18;39.88;;;22.58;;
70169;SDS011;57543;45.442;9.212;2024-02-15T01:30:22;38.25;;;21.40;;
70169;SDS011;57543;45.442;9.212;2024-02-15T01:33:28;39.42;;;22.17;;
70169;SDS011;57543;45.442;9.212;2024-02-15T01:36:32;43.47;;;22.97;;
70169;SDS011;57543;45.442;9.212;2024-02-15T01:39:46;39.47;;;22.15;;
70169;SDS011;57543;45.442;9.212;2024-02-15T01:42:51;38.95;;;21.35;;
70169;SDS011;57543;45.442;9.212;2024-02-15T01:45:55;38.45;;;22.02;;
70169;SDS011;57543;45.442;9.212;2024-02-15T01:49:07;41.47;;;21.30;;
70169;SDS011;57543;45.442;9.212;2024-02-15T01:52:11;39.90;;;21.90;;
70169;SDS011;57543;45.442;9.212;2024-02-15T01:55:16;39.08;;;21.38;;
70169;SDS011;57543;45.442;9.212;2024-02-15T01:58:21;41.38;;;21.95;;
70169;SDS011;57543;45.442;9.212;2024-02-15T02:01:26;39.97;;;22.45;;
70169;SDS011;57543;45.442;9.212;2024-02-15T02:04:34;41.65;;;22.10;;
70169;SDS011;57543;45.442;9.212;2024-02-15T02:07:38;41.27;;;21.93;;
70169;SDS011;57543;45.442;9.212;2024-02-15T02:10:41;41.70;;;21.25;;
70169;SDS011;57543;45.442;9.212;2024-02-15T02:13:45;41.13;;;21.65;;
70169;SDS011;57543;45.442;9.212;2024-02-15T02:16:49;42.15;;;22.63;;
70169;SDS011;57543;45.442;9.212;2024-02-15T02:19:53;37.55;;;21.25;;
70169;SDS011;57543;45.442;9.212;2024-02-15T02:22:59;37.53;;;21.57;;
70169;SDS011;57543;45.442;9.212;2024-02-15T02:26:10;39.45;;;22.10;;
70169;SDS011;57543;45.442;9.212;2024-02-15T02:29:15;40.10;;;22.40;;
70169;SDS011;57543;45.442;9.212;2024-02-15T02:32:19;35.78;;;21.50;;
70169;SDS011;57543;45.442;9.212;2024-02-15T02:35:22;39.20;;;21.90;;
70169;SDS011;57543;45.442;9.212;2024-02-15T02:38:26;42.63;;;22.50;;
70169;SDS011;57543;45.442;9.212;2024-02-15T02:41:31;40.03;;;22.20;;
70169;SDS011;57543;45.442;9.212;2024-02-15T02:44:37;41.72;;;21.95;;
70169;SDS011;57543;45.442;9.212;2024-02-15T02:47:41;43.97;;;22.77;;
70169;SDS011;57543;45.442;9.212;2024-02-15T02:50:48;42.67;;;22.52;;
70169;SDS011;57543;45.442;9.212;2024-02-15T02:53:52;38.97;;;21.90;;
70169;SDS011;57543;45.442;9.212;2024-02-15T02:56:59;38.95;;;21.55;;
70169;SDS011;57543;45.442;9.212;2024-02-15T03:00:03;40.53;;;21.73;;
70169;SDS011;57543;45.442;9.212;2024-02-15T03:03:13;39.13;;;21.23;;
70169;SDS011;57543;45.442;9.212;2024-02-15T03:06:26;37.67;;;21.83;;
70169;SDS011;57543;45.442;9.212;2024-02-15T03:09:30;36.97;;;21.77;;
70169;SDS011;57543;45.442;9.212;2024-02-15T03:12:34;38.30;;;20.08;;
70169;SDS011;57543;45.442;9.212;2024-02-15T03:15:39;35.67;;;20.45;;
70169;SDS011;57543;45.442;9.212;2024-02-15T03:18:45;37.28;;;21.77;;
70169;SDS011;57543;45.442;9.212;2024-02-15T03:21:51;40.85;;;20.92;;
70169;SDS011;57543;45.442;9.212;2024-02-15T03:25:00;37.93;;;21.57;;
70169;SDS011;57543;45.442;9.212;2024-02-15T03:28:03;41.55;;;22.42;;
70169;SDS011;57543;45.442;9.212;2024-02-15T03:31:07;37.30;;;21.48;;
70169;SDS011;57543;45.442;9.212;2024-02-15T03:34:11;44.42;;;22.38;;
70169;SDS011;57543;45.442;9.212;2024-02-15T03:37:15;40.47;;;22.92;;
70169;SDS011;57543;45.442;9.212;2024-02-15T03:40:21;39.43;;;22.23;;
70169;SDS011;57543;45.442;9.212;2024-02-15T03:43:28;39.53;;;22.55;;
70169;SDS011;57543;45.442;9.212;2024-02-15T03:46:31;40.17;;;21.83;;
70169;SDS011;57543;45.442;9.212;2024-02-15T03:49:35;41.33;;;21.50;;
70169;SDS011;57543;45.442;9.212;2024-02-15T03:52:43;40.95;;;20.67;;
70169;SDS011;57543;45.442;9.212;2024-02-15T03:55:47;39.00;;;21.57;;
70169;SDS011;57543;45.442;9.212;2024-02-15T03:58:50;39.35;;;22.58;;
70169;SDS011;57543;45.442;9.212;2024-02-15T04:01:54;42.60;;;22.17;;
70169;SDS011;57543;45.442;9.212;2024-02-15T04:04:58;40.35;;;22.38;;
70169;SDS011;57543;45.442;9.212;2024-02-15T04:08:04;39.97;;;21.95;;
70169;SDS011;57543;45.442;9.212;2024-02-15T04:11:08;40.93;;;22.20;;
70169;SDS011;57543;45.442;9.212;2024-02-15T04:14:13;39.25;;;21.70;;
70169;SDS011;57543;45.442;9.212;2024-02-15T04:17:17;40.10;;;22.42;;
70169;SDS011;57543;45.442;9.212;2024-02-15T04:20:24;39.03;;;21.73;;
70169;SDS011;57543;45.442;9.212;2024-02-15T04:23:28;41.05;;;21.38;;
70169;SDS011;57543;45.442;9.212;2024-02-15T04:26:42;37.97;;;21.33;;
70169;SDS011;57543;45.442;9.212;2024-02-15T04:29:45;41.05;;;21.73;;
70169;SDS011;57543;45.442;9.212;2024-02-15T04:32:52;38.38;;;22.10;;
70169;SDS011;57543;45.442;9.212;2024-02-15T04:36:02;38.38;;;20.92;;
70169;SDS011;57543;45.442;9.212;2024-02-15T04:39:15;40.15;;;23.13;;
70169;SDS011;57543;45.442;9.212;2024-02-15T04:42:26;37.53;;;20.47;;
70169;SDS011;57543;45.442;9.212;2024-02-15T04:45:31;43.13;;;21.70;;
70169;SDS011;57543;45.442;9.212;2024-02-15T04:48:42;35.88;;;21.25;;
70169;SDS011;57543;45.442;9.212;2024-02-15T04:51:49;41.03;;;21.90;;
70169;SDS011;57543;45.442;9.212;2024-02-15T04:54:53;37.45;;;20.73;;
70169;SDS011;57543;45.442;9.212;2024-02-15T04:58:01;38.10;;;21.57;;
70169;SDS011;57543;45.442;9.212;2024-02-15T05:01:06;40.25;;;21.45;;
70169;SDS011;57543;45.442;9.212;2024-02-15T05:04:09;38.30;;;21.35;;
70169;SDS011;57543;45.442;9.212;2024-02-15T05:07:16;39.05;;;21.33;;
70169;SDS011;57543;45.442;9.212;2024-02-15T05:10:21;37.67;;;20.77;;
70169;SDS011;57543;45.442;9.212;2024-02-15T05:13:24;38.43;;;20.77;;
70169;SDS011;57543;45.442;9.212;2024-02-15T05:16:28;41.95;;;22.52;;
70169;SDS011;57543;45.442;9.212;2024-02-15T05:19:31;38.88;;;21.23;;
70169;SDS011;57543;45.442;9.212;2024-02-15T05:22:35;40.03;;;21.02;;
70169;SDS011;57543;45.442;9.212;2024-02-15T05:25:41;38.67;;;21.63;;
70169;SDS011;57543;45.442;9.212;2024-02-15T05:28:47;40.23;;;21.17;;
70169;SDS011;57543;45.442;9.212;2024-02-15T05:31:51;37.63;;;20.70;;
70169;SDS011;57543;45.442;9.212;2024-02-15T05:34:57;38.08;;;21.48;;
70169;SDS011;57543;45.442;9.212;2024-02-15T05:38:00;39.40;;;21.63;;
70169;SDS011;57543;45.442;9.212;2024-02-15T05:41:07;41.65;;;21.00;;
70169;SDS011;57543;45.442;9.212;2024-02-15T05:44:11;43.50;;;21.60;;
70169;SDS011;57543;45.442;9.212;2024-02-15T05:47:15;39.38;;;21.73;;
70169;SDS011;57543;45.442;9.212;2024-02-15T05:50:18;37.90;;;22.05;;
70169;SDS011;57543;45.442;9.212;2024-02-15T05:53:24;40.47;;;21.75;;
70169;SDS011;57543;45.442;9.212;2024-02-15T05:56:28;41.38;;;21.90;;
70169;SDS011;57543;45.442;9.212;2024-02-15T05:59:32;41.07;;;23.20;;
70169;SDS011;57543;45.442;9.212;2024-02-15T06:02:38;41.80;;;22.15;;
70169;SDS011;57543;45.442;9.212;2024-02-15T06:05:42;38.35;;;22.30;;
70169;SDS011;57543;45.442;9.212;2024-02-15T06:08:50;39.35;;;21.27;;
70169;SDS011;57543;45.442;9.212;2024-02-15T06:12:01;37.95;;;21.05;;
70169;SDS011;57543;45.442;9.212;2024-02-15T06:15:07;39.27;;;21.30;;
70169;SDS011;57543;45.442;9.212;2024-02-15T06:18:20;38.58;;;21.58;;
70169;SDS011;57543;45.442;9.212;2024-02-15T06:21:36;38.78;;;21.95;;
70169;SDS011;57543;45.442;9.212;2024-02-15T06:24:40;35.53;;;20.65;;
70169;SDS011;57543;45.442;9.212;2024-02-15T06:27:44;38.85;;;21.33;;
70169;SDS011;57543;45.442;9.212;2024-02-15T06:30:52;40.07;;;22.23;;
70169;SDS011;57543;45.442;9.212;2024-02-15T06:34:14;37.22;;;21.02;;
70169;SDS011;57543;45.442;9.212;2024-02-15T06:37:39;40.58;;;22.23;;
70169;SDS011;57543;45.442;9.212;2024-02-15T06:41:01;38.10;;;20.95;;
70169;SDS011;57543;45.442;9.212;2024-02-15T06:44:07;38.13;;;22.23;;
70169;SDS011;57543;45.442;9.212;2024-02-15T06:47:13;47.23;;;21.87;;
70169;SDS011;57543;45.442;9.212;2024-02-15T06:50:20;39.13;;;21.70;;
70169;SDS011;57543;45.442;9.212;2024-02-15T06:53:24;37.63;;;21.27;;
70169;SDS011;57543;45.442;9.212;2024-02-15T06:56:28;38.03;;;21.20;;
70169;SDS011;57543;45.442;9.212;2024-02-15T06:59:32;38.58;;;21.35;;
70169;SDS011;57543;45.442;9.212;2024-02-15T07:02:36;35.97;;;20.83;;
70169;SDS011;57543;45.442;9.212;2024-02-15T07:05:39;41.28;;;21.58;;
70169;SDS011;57543;45.442;9.212;2024-02-15T07:08:43;45.92;;;22.15;;
70169;SDS011;57543;45.442;9.212;2024-02-15T07:11:47;39.08;;;20.73;;
70169;SDS011;57543;45.442;9.212;2024-02-15T07:14:51;39.92;;;21.23;;
70169;SDS011;57543;45.442;9.212;2024-02-15T07:17:55;40.00;;;20.97;;
70169;SDS011;57543;45.442;9.212;2024-02-15T07:20:59;43.50;;;22.95;;
70169;SDS011;57543;45.442;9.212;2024-02-15T07:24:04;38.75;;;21.20;;
70169;SDS011;57543;45.442;9.212;2024-02-15T07:27:08;36.10;;;20.70;;
70169;SDS011;57543;45.442;9.212;2024-02-15T07:30:13;43.78;;;23.23;;
70169;SDS011;57543;45.442;9.212;2024-02-15T07:33:18;40.90;;;21.40;;
70169;SDS011;57543;45.442;9.212;2024-02-15T07:36:24;39.42;;;22.63;;
70169;SDS011;57543;45.442;9.212;2024-02-15T07:39:41;37.88;;;20.88;;
70169;SDS011;57543;45.442;9.212;2024-02-15T07:42:44;35.83;;;19.35;;
70169;SDS011;57543;45.442;9.212;2024-02-15T07:45:49;34.20;;;19.25;;
70169;SDS011;57543;45.442;9.212;2024-02-15T07:49:00;37.80;;;21.07;;
70169;SDS011;57543;45.442;9.212;2024-02-15T07:52:07;33.35;;;19.70;;
70169;SDS011;57543;45.442;9.212;2024-02-15T07:55:16;34.85;;;19.88;;
70169;SDS011;57543;45.442;9.212;2024-02-15T07:58:22;40.42;;;21.98;;
70169;SDS011;57543;45.442;9.212;2024-02-15T08:01:25;35.10;;;21.33;;
70169;SDS011;57543;45.442;9.212;2024-02-15T08:04:29;38.30;;;22.47;;
70169;SDS011;57543;45.442;9.212;2024-02-15T08:07:33;42.08;;;22.92;;
70169;SDS011;57543;45.442;9.212;2024-02-15T08:10:39;43.33;;;22.00;;
70169;SDS011;57543;45.442;9.212;2024-02-15T08:13:46;39.88;;;22.45;;
70169;SDS011;57543;45.442;9.212;2024-02-15T08:16:52;43.90;;;23.42;;
70169;SDS011;57543;45.442;9.212;2024-02-15T08:19:55;37.80;;;21.13;;
70169;SDS011;57543;45.442;9.212;2024-02-15T08:22:59;44.55;;;22.63;;
70169;SDS011;57543;45.442;9.212;2024-02-15T08:26:02;45.45;;;25.70;;
70169;SDS011;57543;45.442;9.212;2024-02-15T08:29:09;50.00;;;24.95;;
70169;SDS011;57543;45.442;9.212;2024-02-15T08:32:18;42.22;;;21.67;;
70169;SDS011;57543;45.442;9.212;2024-02-15T08:35:24;46.87;;;22.67;;
70169;SDS011;57543;45.442;9.212;2024-02-15T08:38:27;41.10;;;22.85;;
70169;SDS011;57543;45.442;9.212;2024-02-15T08:41:33;39.85;;;21.55;;
70169;SDS011;57543;45.442;9.212;2024-02-15T08:44:38;43.05;;;21.58;;
70169;SDS011;57543;45.442;9.212;2024-02-15T08:47:41;43.42;;;23.35;;
70169;SDS011;57543;45.442;9.212;2024-02-15T08:50:51;41.17;;;22.73;;
70169;SDS011;57543;45.442;9.212;2024-02-15T08:53:54;39.33;;;22.23;;
70169;SDS011;57543;45.442;9.212;2024-02-15T08:57:00;35.05;;;21.65;;
70169;SDS011;57543;45.442;9.212;2024-02-15T09:00:07;38.72;;;23.48;;
70169;SDS011;57543;45.442;9.212;2024-02-15T09:03:17;40.45;;;23.48;;
70169;SDS011;57543;45.442;9.212;2024-02-15T09:06:22;41.47;;;23.53;;
70169;SDS011;57543;45.442;9.212;2024-02-15T09:09:26;45.95;;;23.50;;
70169;SDS011;57543;45.442;9.212;2024-02-15T09:12:34;42.58;;;23.90;;
70169;SDS011;57543;45.442;9.212;2024-02-15T09:15:40;41.03;;;24.23;;
70169;SDS011;57543;45.442;9.212;2024-02-15T09:18:45;40.25;;;25.48;;
70169;SDS011;57543;45.442;9.212;2024-02-15T09:21:55;42.27;;;25.10;;
70169;SDS011;57543;45.442;9.212;2024-02-15T09:25:03;47.25;;;26.90;;
70169;SDS011;57543;45.442;9.212;2024-02-15T09:28:09;48.97;;;26.92;;
70169;SDS011;57543;45.442;9.212;2024-02-15T09:31:13;45.25;;;25.83;;
70169;SDS011;57543;45.442;9.212;2024-02-15T09:34:17;44.13;;;26.33;;
70169;SDS011;57543;45.442;9.212;2024-02-15T09:37:21;52.53;;;27.27;;
70169;SDS011;57543;45.442;9.212;2024-02-15T09:40:24;53.92;;;28.02;;
70169;SDS011;57543;45.442;9.212;2024-02-15T09:43:29;49.03;;;26.77;;
70169;SDS011;57543;45.442;9.212;2024-02-15T09:46:38;43.97;;;26.23;;
70169;SDS011;57543;45.442;9.212;2024-02-15T09:49:48;46.83;;;27.13;;
70169;SDS011;57543;45.442;9.212;2024-02-15T09:52:55;46.87;;;27.07;;
70169;SDS011;57543;45.442;9.212;2024-02-15T09:55:59;47.47;;;27.70;;
70169;SDS011;57543;45.442;9.212;2024-02-15T09:59:07;46.83;;;27.95;;
70169;SDS011;57543;45.442;9.212;2024-02-15T10:02:11;44.58;;;27.48;;
70169;SDS011;57543;45.442;9.212;2024-02-15T10:05:20;52.05;;;30.75;;
70169;SDS011;57543;45.442;9.212;2024-02-15T10:08:24;51.00;;;30.90;;
70169;SDS011;57543;45.442;9.212;2024-02-15T10:11:28;48.85;;;29.00;;
70169;SDS011;57543;45.442;9.212;2024-02-15T10:14:35;53.50;;;29.90;;
70169;SDS011;57543;45.442;9.212;2024-02-15T10:17:38;50.92;;;31.85;;
70169;SDS011;57543;45.442;9.212;2024-02-15T10:20:42;47.95;;;28.08;;
70169;SDS011;57543;45.442;9.212;2024-02-15T10:24:06;44.83;;;27.33;;
70169;SDS011;57543;45.442;9.212;2024-02-15T10:27:23;51.35;;;30.05;;
70169;SDS011;57543;45.442;9.212;2024-02-15T10:30:27;51.47;;;31.10;;
70169;SDS011;57543;45.442;9.212;2024-02-15T10:33:31;50.58;;;30.92;;
70169;SDS011;57543;45.442;9.212;2024-02-15T10:36:37;47.42;;;29.25;;
70169;SDS011;57543;45.442;9.212;2024-02-15T10:39:40;54.17;;;30.33;;
70169;SDS011;57543;45.442;9.212;2024-02-15T10:42:53;50.08;;;29.52;;
70169;SDS011;57543;45.442;9.212;2024-02-15T10:46:01;50.15;;;31.27;;
70169;SDS011;57543;45.442;9.212;2024-02-15T10:49:11;51.47;;;30.77;;
70169;SDS011;57543;45.442;9.212;2024-02-15T10:52:16;48.22;;;28.23;;
70169;SDS011;57543;45.442;9.212;2024-02-15T10:55:26;47.33;;;27.73;;
70169;SDS011;57543;45.442;9.212;2024-02-15T10:58:45;46.70;;;27.33;;
70169;SDS011;57543;45.442;9.212;2024-02-15T11:01:53;50.33;;;29.90;;
70169;SDS011;57543;45.442;9.212;2024-02-15T11:05:05;46.58;;;27.98;;
70169;SDS011;57543;45.442;9.212;2024-02-15T11:08:12;50.63;;;28.52;;
70169;SDS011;57543;45.442;9.212;2024-02-15T11:11:16;52.17;;;30.07;;
70169;SDS011;57543;45.442;9.212;2024-02-15T11:14:30;46.55;;;28.58;;
70169;SDS011;57543;45.442;9.212;2024-02-15T11:17:46;49.40;;;29.35;;
70169;SDS011;57543;45.442;9.212;2024-02-15T11:20:57;47.30;;;28.52;;
70169;SDS011;57543;45.442;9.212;2024-02-15T11:27:29;49.17;;;28.87;;
70169;SDS011;57543;45.442;9.212;2024-02-15T11:30:33;49.65;;;27.77;;
70169;SDS011;57543;45.442;9.212;2024-02-15T11:33:42;49.78;;;28.75;;
70169;SDS011;57543;45.442;9.212;2024-02-15T11:36:48;45.80;;;27.30;;
70169;SDS011;57543;45.442;9.212;2024-02-15T11:39:58;47.63;;;26.80;;
70169;SDS011;57543;45.442;9.212;2024-02-15T11:43:03;42.17;;;24.33;;
70169;SDS011;57543;45.442;9.212;2024-02-15T11:46:11;49.88;;;28.23;;
70169;SDS011;57543;45.442;9.212;2024-02-15T11:49:16;49.47;;;29.42;;
70169;SDS011;57543;45.442;9.212;2024-02-15T11:52:22;55.97;;;30.88;;
70169;SDS011;57543;45.442;9.212;2024-02-15T11:55:25;47.88;;;27.25;;
70169;SDS011;57543;45.442;9.212;2024-02-15T11:58:30;54.83;;;28.97;;
70169;SDS011;57543;45.442;9.212;2024-02-15T12:01:58;52.60;;;30.55;;
70169;SDS011;57543;45.442;9.212;2024-02-15T12:05:21;51.50;;;28.13;;
70169;SDS011;57543;45.442;9.212;2024-02-15T12:08:51;49.75;;;28.65;;
70169;SDS011;57543;45.442;9.212;2024-02-15T12:12:14;48.00;;;27.33;;
70169;SDS011;57543;45.442;9.212;2024-02-15T12:15:37;51.03;;;29.87;;
70169;SDS011;57543;45.442;9.212;2024-02-15T12:19:00;53.55;;;30.35;;
70169;SDS011;57543;45.442;9.212;2024-02-15T12:22:09;52.35;;;29.67;;
70169;SDS011;57543;45.442;9.212;2024-02-15T12:25:14;50.65;;;29.60;;
70169;SDS011;57543;45.442;9.212;2024-02-15T12:28:20;48.80;;;27.77;;
70169;SDS011;57543;45.442;9.212;2024-02-15T12:31:24;52.50;;;30.77;;
70169;SDS011;57543;45.442;9.212;2024-02-15T12:34:29;53.03;;;30.25;;
70169;SDS011;57543;45.442;9.212;2024-02-15T12:37:33;51.33;;;29.98;;
70169;SDS011;57543;45.442;9.212;2024-02-15T12:40:37;50.30;;;30.40;;
70169;SDS011;57543;45.442;9.212;2024-02-15T12:43:52;51.92;;;30.58;;
70169;SDS011;57543;45.442;9.212;2024-02-15T12:46:56;50.63;;;29.37;;
70169;SDS011;57543;45.442;9.212;2024-02-15T12:50:12;50.53;;;29.35;;
70169;SDS011;57543;45.442;9.212;2024-02-15T12:53:24;56.05;;;32.28;;
70169;SDS011;57543;45.442;9.212;2024-02-15T12:56:28;52.00;;;30.90;;
70169;SDS011;57543;45.442;9.212;2024-02-15T12:59:31;49.10;;;28.75;;
70169;SDS011;57543;45.442;9.212;2024-02-15T13:02:35;54.93;;;31.00;;
70169;SDS011;57543;45.442;9.212;2024-02-15T13:05:39;58.20;;;30.88;;
70169;SDS011;57543;45.442;9.212;2024-02-15T13:08:45;57.72;;;31.67;;
70169;SDS011;57543;45.442;9.212;2024-02-15T13:11:51;50.70;;;29.65;;
70169;SDS011;57543;45.442;9.212;2024-02-15T13:14:57;56.35;;;30.02;;
70169;SDS011;57543;45.442;9.212;2024-02-15T13:18:03;49.73;;;30.07;;
70169;SDS011;57543;45.442;9.212;2024-02-15T13:21:11;51.15;;;29.27;;
70169;SDS011;57543;45.442;9.212;2024-02-15T13:24:15;53.75;;;30.13;;
70169;SDS011;57543;45.442;9.212;2024-02-15T13:27:20;50.95;;;28.52;;
70169;SDS011;57543;45.442;9.212;2024-02-15T13:30:29;55.50;;;31.23;;
70169;SDS011;57543;45.442;9.212;2024-02-15T13:33:36;50.80;;;30.00;;
70169;SDS011;57543;45.442;9.212;2024-02-15T13:36:40;52.08;;;28.92;;
70169;SDS011;57543;45.442;9.212;2024-02-15T13:39:43;52.30;;;28.70;;
70169;SDS011;57543;45.442;9.212;2024-02-15T13:42:49;48.30;;;29.02;;
70169;SDS011;57543;45.442;9.212;2024-02-15T13:45:56;51.05;;;29.13;;
70169;SDS011;57543;45.442;9.212;2024-02-15T13:49:00;52.27;;;29.07;;
70169;SDS011;57543;45.442;9.212;2024-02-15T13:52:06;48.35;;;28.20;;
70169;SDS011;57543;45.442;9.212;2024-02-15T13:55:11;50.15;;;28.70;;
70169;SDS011;57543;45.442;9.212;2024-02-15T13:58:18;51.75;;;29.08;;
70169;SDS011;57543;45.442;9.212;2024-02-15T14:01:24;50.78;;;28.90;;
70169;SDS011;57543;45.442;9.212;2024-02-15T14:04:31;55.57;;;28.97;;
70169;SDS011;57543;45.442;9.212;2024-02-15T14:07:39;56.10;;;30.25;;
70169;SDS011;57543;45.442;9.212;2024-02-15T14:10:44;55.33;;;31.25;;
70169;SDS011;57543;45.442;9.212;2024-02-15T14:13:47;49.08;;;28.58;;
70169;SDS011;57543;45.442;9.212;2024-02-15T14:16:54;50.80;;;28.67;;
70169;SDS011;57543;45.442;9.212;2024-02-15T14:19:58;50.80;;;28.47;;
70169;SDS011;57543;45.442;9.212;2024-02-15T14:23:04;50.33;;;29.67;;
70169;SDS011;57543;45.442;9.212;2024-02-15T14:26:09;49.95;;;27.92;;
70169;SDS011;57543;45.442;9.212;2024-02-15T14:29:13;49.45;;;29.98;;
70169;SDS011;57543;45.442;9.212;2024-02-15T14:32:17;49.97;;;27.73;;
70169;SDS011;57543;45.442;9.212;2024-02-15T14:35:40;46.63;;;26.63;;
70169;SDS011;57543;45.442;9.212;2024-02-15T14:38:44;48.83;;;27.85;;
70169;SDS011;57543;45.442;9.212;2024-02-15T14:41:48;47.53;;;27.70;;
70169;SDS011;57543;45.442;9.212;2024-02-15T14:44:51;45.65;;;28.60;;
70169;SDS011;57543;45.442;9.212;2024-02-15T14:47:55;54.17;;;29.95;;
70169;SDS011;57543;45.442;9.212;2024-02-15T14:51:07;46.37;;;28.77;;
70169;SDS011;57543;45.442;9.212;2024-02-15T14:54:12;54.55;;;29.92;;
70169;SDS011;57543;45.442;9.212;2024-02-15T14:57:18;50.20;;;28.90;;
70169;SDS011;57543;45.442;9.212;2024-02-15T15:00:22;50.78;;;28.50;;
70169;SDS011;57543;45.442;9.212;2024-02-15T15:03:30;46.67;;;26.27;;
70169;SDS011;57543;45.442;9.212;2024-02-15T15:06:44;48.00;;;28.07;;
70169;SDS011;57543;45.442;9.212;2024-02-15T15:10:12;47.25;;;28.02;;
70169;SDS011;57543;45.442;9.212;2024-02-15T15:13:34;49.33;;;26.70;;
70169;SDS011;57543;45.442;9.212;2024-02-15T15:16:41;45.15;;;26.38;;
70169;SDS011;57543;45.442;9.212;2024-02-15T15:19:44;44.05;;;26.48;;
70169;SDS011;57543;45.442;9.212;2024-02-15T15:22:50;52.60;;;27.43;;
70169;SDS011;57543;45.442;9.212;2024-02-15T15:25:54;44.38;;;25.55;;
70169;SDS011;57543;45.442;9.212;2024-02-15T15:28:58;43.85;;;25.33;;
70169;SDS011;57543;45.442;9.212;2024-02-15T15:32:02;48.65;;;28.23;;
70169;SDS011;57543;45.442;9.212;2024-02-15T15:35:06;48.40;;;28.15;;
70169;SDS011;57543;45.442;9.212;2024-02-15T15:38:12;45.97;;;26.23;;
70169;SDS011;57543;45.442;9.212;2024-02-15T15:41:16;55.30;;;29.38;;
70169;SDS011;57543;45.442;9.212;2024-02-15T15:44:26;46.75;;;27.38;;
70169;SDS011;57543;45.442;9.212;2024-02-15T15:47:33;47.15;;;26.92;;
70169;SDS011;57543;45.442;9.212;2024-02-15T15:50:39;41.95;;;24.80;;
70169;SDS011;57543;45.442;9.212;2024-02-15T15:53:46;42.60;;;27.20;;
70169;SDS011;57543;45.442;9.212;2024-02-15T15:56:50;43.20;;;26.58;;
70169;SDS011;57543;45.442;9.212;2024-02-15T16:00:00;44.47;;;26.85;;
70169;SDS011;57543;45.442;9.212;2024-02-15T16:03:08;48.72;;;28.20;;
70169;SDS011;57543;45.442;9.212;2024-02-15T16:06:12;46.55;;;26.35;;
70169;SDS011;57543;45.442;9.212;2024-02-15T16:09:22;45.10;;;27.07;;
70169;SDS011;57543;45.442;9.212;2024-02-15T16:12:28;46.13;;;27.50;;
70169;SDS011;57543;45.442;9.212;2024-02-15T16:15:38;51.10;;;29.48;;
70169;SDS011;57543;45.442;9.212;2024-02-15T16:18:46;48.72;;;28.63;;
70169;SDS011;57543;45.442;9.212;2024-02-15T16:21:52;49.67;;;28.05;;
70169;SDS011;57543;45.442;9.212;2024-02-15T16:25:00;44.50;;;27.03;;
70169;SDS011;57543;45.442;9.212;2024-02-15T16:28:11;46.17;;;27.33;;
70169;SDS011;57543;45.442;9.212;2024-02-15T16:31:14;48.08;;;28.55;;
70169;SDS011;57543;45.442;9.212;2024-02-15T16:34:20;49.60;;;28.02;;
70169;SDS011;57543;45.442;9.212;2024-02-15T16:37:26;48.47;;;28.23;;
70169;SDS011;57543;45.442;9.212;2024-02-15T16:40:33;46.37;;;27.97;;
70169;SDS011;57543;45.442;9.212;2024-02-15T16:43:39;53.22;;;29.58;;
70169;SDS011;57543;45.442;9.212;2024-02-15T16:46:42;50.83;;;29.55;;
70169;SDS011;57543;45.442;9.212;2024-02-15T16:49:50;46.53;;;28.40;;
70169;SDS011;57543;45.442;9.212;2024-02-15T16:52:56;51.03;;;29.75;;
70169;SDS011;57543;45.442;9.212;2024-02-15T16:56:00;49.57;;;28.83;;
70169;SDS011;57543;45.442;9.212;2024-02-15T16:59:06;49.50;;;28.55;;
70169;SDS011;57543;45.442;9.212;2024-02-15T17:02:16;56.22;;;29.98;;
70169;SDS011;57543;45.442;9.212;2024-02-15T17:05:19;52.38;;;30.67;;
70169;SDS011;57543;45.442;9.212;2024-02-15T17:08:23;51.28;;;30.35;;
70169;SDS011;57543;45.442;9.212;2024-02-15T17:11:26;48.23;;;28.97;;
70169;SDS011;57543;45.442;9.212;2024-02-15T17:14:33;48.85;;;28.15;;
70169;SDS011;57543;45.442;9.212;2024-02-15T17:17:38;47.38;;;27.77;;
70169;SDS011;57543;45.442;9.212;2024-02-15T17:20:43;49.75;;;28.77;;
70169;SDS011;57543;45.442;9.212;2024-02-15T17:24:03;49.25;;;28.70;;
70169;SDS011;57543;45.442;9.212;2024-02-15T17:27:10;50.33;;;27.13;;
70169;SDS011;57543;45.442;9.212;2024-02-15T17:30:19;48.47;;;28.25;;
70169;SDS011;57543;45.442;9.212;2024-02-15T17:33:24;51.38;;;28.77;;
70169;SDS011;57543;45.442;9.212;2024-02-15T17:36:28;48.95;;;27.33;;
70169;SDS011;57543;45.442;9.212;2024-02-15T17:39:37;48.20;;;27.90;;
70169;SDS011;57543;45.442;9.212;2024-02-15T17:42:46;49.67;;;26.87;;
70169;SDS011;57543;45.442;9.212;2024-02-15T17:45:50;52.08;;;29.90;;
70169;SDS011;57543;45.442;9.212;2024-02-15T17:48:57;50.95;;;29.10;;
70169;SDS011;57543;45.442;9.212;2024-02-15T17:52:01;49.78;;;27.33;;
70169;SDS011;57543;45.442;9.212;2024-02-15T17:55:05;48.17;;;28.02;;
70169;SDS011;57543;45.442;9.212;2024-02-15T17:58:12;47.03;;;26.63;;
70169;SDS011;57543;45.442;9.212;2024-02-15T18:01:21;47.85;;;26.70;;
70169;SDS011;57543;45.442;9.212;2024-02-15T18:04:27;52.72;;;27.77;;
70169;SDS011;57543;45.442;9.212;2024-02-15T18:07:34;54.72;;;28.05;;
70169;SDS011;57543;45.442;9.212;2024-02-15T18:10:38;51.03;;;26.60;;
70169;SDS011;57543;45.442;9.212;2024-02-15T18:13:41;47.77;;;27.80;;